COOK1: Arkansas River Nr Coolidge, KS

Data processed at Fri Jan 05 2018 23:29


All information presented herein is the property of the government of the United States of America and may be revised or deleted at any time without prior notice.
Dissemination of this information without the expressed written consent of the Public Affairs Office, Tulsa District U.S. Army Corps of Engineers is strictly prohibited.
These data are gathered electronically and, as presented, have not undergone any form of quality control. These data are not guaranteed to be valid or correct.
Go to home page.
Go to station list.

Upstream stations:

Downstream station:
Previous Day
Next Day
Current Day
    
SHEF ID:       COOK1     ARKANSAS R NR COOLIDGE, KS
STATION TYPE:  

               PRECIP     STAGE  STAGE(2)  RIV-FLOW  WTR-TEMP   CONDUCT  BAT-LOAD
                   in        ft        ft       cfs         F   umho/cm      volt
              Ccp-Rev   Ccp-Rev   Ccp-Rev   Ccp-Rev   Ccp-Rev   Ccp-Rev   Ccp-Rev
(US/Central)
01/03 00:00      0.00      3.36      3.30       175     31.82      6539     12.83
01/03 01:00      0.00      3.37      3.30       177     31.82      6541     12.77
01/03 02:00      0.00      3.37      3.27       177     31.82      6606     12.77
01/03 03:00      0.00      3.36      3.30       175     31.82      6683     12.77
01/03 04:00      0.00      3.37      3.29       177     31.82      6741     12.77
01/03 05:00      0.00      3.38      3.30       178     31.82      6755     12.71
01/03 06:00      0.00      3.38      3.29       178     31.82      6775     12.71
01/03 07:00      0.00      3.36      3.29       175     31.82      6773     12.65
01/03 08:00      0.00      3.35      3.26       174     31.82      6768     12.65
01/03 09:00      0.00      3.34      3.27       172     31.82      6845     12.71
01/03 10:00      0.00      3.35      3.25       174     31.82      6860     13.59
01/03 11:00      0.00      3.33      3.25       171     31.82      6872     13.65
01/03 12:00      0.00      3.29      3.25       165     32.05      7209     13.71
01/03 13:00      0.00      3.29      3.24       165     33.10      7151     13.77
01/03 14:00      0.00      3.30      3.24       167     34.27      7115     13.77
01/03 15:00      0.00      3.28      3.22       164     34.95      7065     13.71
01/03 16:00      0.00      3.29      3.25       165     35.19      7029     13.65
01/03 17:00      0.00      3.28      3.25       164     35.15      7015     13.24
01/03 18:00      0.00      3.29      3.25       165     35.08      7000     13.18
01/03 19:00      0.00      3.31      3.27       168     35.01      6991     13.07
01/03 20:00      0.00      3.33      3.28       171     34.75      6964     13.00
01/03 21:00      0.00      3.34      3.30       172     34.34      6948     12.95
01/03 22:00      0.00      3.35      3.28       174     33.82      6948     12.89
01/03 23:00      0.00      3.34      3.28       172     33.31      6934     12.89